createdAt,value
2022-12-04T00:01:06.543Z,0.20
2022-12-04T00:03:33.900Z,0.20
2022-12-04T00:06:05.483Z,0.20
2022-12-04T00:08:32.373Z,0.20
2022-12-04T00:10:59.147Z,0.20
2022-12-04T00:13:26.757Z,0.20
2022-12-04T00:15:54.045Z,0.20
2022-12-04T00:18:20.774Z,0.20
2022-12-04T00:20:47.618Z,0.20
2022-12-04T00:23:14.531Z,0.30
2022-12-04T00:25:41.655Z,0.30
2022-12-04T00:28:08.939Z,0.20
2022-12-04T00:30:35.578Z,0.20
2022-12-04T00:33:02.229Z,0.20
2022-12-04T00:35:28.857Z,0.20
2022-12-04T00:37:55.474Z,0.20
2022-12-04T00:40:22.180Z,0.20
2022-12-04T00:42:48.824Z,0.20
2022-12-04T00:45:15.460Z,0.30
2022-12-04T00:47:42.237Z,0.30
2022-12-04T00:50:09.332Z,0.30
2022-12-04T00:52:36.041Z,0.30
2022-12-04T00:55:02.816Z,0.30
2022-12-04T00:57:29.527Z,0.30
2022-12-04T00:59:56.539Z,0.30
2022-12-04T01:02:23.342Z,0.30
2022-12-04T01:04:50.195Z,0.20
2022-12-04T01:07:16.895Z,0.20
2022-12-04T01:09:43.680Z,0.20
2022-12-04T01:12:10.294Z,0.10
2022-12-04T01:14:36.950Z,0.20
2022-12-04T01:17:03.669Z,0.20
2022-12-04T01:19:30.403Z,0.20
2022-12-04T01:21:57.055Z,0.30
2022-12-04T01:24:23.725Z,0.30
2022-12-04T01:26:50.315Z,0.30
2022-12-04T01:29:17.064Z,0.30
2022-12-04T01:31:43.818Z,0.30
2022-12-04T01:34:10.548Z,0.30
2022-12-04T01:36:37.256Z,0.30
2022-12-04T01:39:04.354Z,0.30
2022-12-04T01:41:32.212Z,0.30
2022-12-04T01:44:18.450Z,0.20
2022-12-04T01:46:52.944Z,0.30
2022-12-04T01:49:42.883Z,0.30
2022-12-04T01:52:22.107Z,0.30
2022-12-04T01:54:56.867Z,0.30
2022-12-04T01:57:27.536Z,0.30
2022-12-04T01:59:59.439Z,0.40
2022-12-04T02:02:38.695Z,0.40
2022-12-04T02:05:09.368Z,0.40
2022-12-04T02:07:37.119Z,0.40
2022-12-04T02:10:06.516Z,0.30
2022-12-04T02:12:47.326Z,0.30
2022-12-04T02:15:19.431Z,0.30
2022-12-04T02:17:54.975Z,0.30
2022-12-04T02:20:32.840Z,0.30
2022-12-04T02:23:20.653Z,0.30
2022-12-04T02:26:01.478Z,0.30
2022-12-04T02:28:42.679Z,0.30
2022-12-04T02:31:18.047Z,0.30
2022-12-04T02:33:57.213Z,0.30
2022-12-04T02:36:27.772Z,0.30
2022-12-04T02:39:18.311Z,0.30
2022-12-04T02:42:09.919Z,0.30
2022-12-04T02:44:45.704Z,0.40
2022-12-04T02:47:14.728Z,0.40
2022-12-04T02:49:51.209Z,0.40
2022-12-04T02:52:24.422Z,0.30
2022-12-04T02:54:56.041Z,0.30
2022-12-04T02:57:30.008Z,0.40
2022-12-04T02:59:58.748Z,0.30
2022-12-04T03:02:35.207Z,0.30
2022-12-04T03:05:09.216Z,0.30
2022-12-04T03:07:44.504Z,0.30
2022-12-04T03:10:15.578Z,0.30
2022-12-04T03:12:54.269Z,0.30
2022-12-04T03:15:36.699Z,0.30
2022-12-04T03:18:18.222Z,0.40
2022-12-04T03:20:48.032Z,0.40
2022-12-04T03:23:28.384Z,0.40
2022-12-04T03:26:07.540Z,0.40
2022-12-04T03:28:46.673Z,0.40
2022-12-04T03:31:19.073Z,0.40
2022-12-04T03:33:48.247Z,0.40
2022-12-04T03:36:31.122Z,0.50
2022-12-04T03:39:04.956Z,0.50
2022-12-04T03:41:49.736Z,0.40
2022-12-04T03:44:29.861Z,0.50
2022-12-04T03:47:28.968Z,0.50
2022-12-04T03:50:20.828Z,0.50
2022-12-04T03:53:05.606Z,0.50
2022-12-04T03:55:51.733Z,0.50
2022-12-04T03:58:30.246Z,0.50
2022-12-04T04:01:00.221Z,0.50
2022-12-04T04:03:35.572Z,0.60
2022-12-04T04:06:09.556Z,0.60
2022-12-04T04:08:39.813Z,0.50
2022-12-04T04:11:06.436Z,0.50
2022-12-04T04:14:09.367Z,0.50
2022-12-04T04:16:58.724Z,0.50
2022-12-04T04:19:48.187Z,0.50
2022-12-04T04:22:35.656Z,0.50
2022-12-04T04:25:07.965Z,0.60
2022-12-04T04:27:34.642Z,0.60
2022-12-04T04:30:01.674Z,0.60
2022-12-04T04:32:40.255Z,0.60
2022-12-04T04:35:14.788Z,0.60
2022-12-04T04:38:01.084Z,0.60
2022-12-04T04:40:41.675Z,0.60
2022-12-04T04:43:28.322Z,0.60
2022-12-04T04:46:02.461Z,0.70
2022-12-04T04:48:34.681Z,0.60
2022-12-04T04:51:03.980Z,0.60
2022-12-04T04:53:35.589Z,0.60
2022-12-04T04:56:04.203Z,0.60
2022-12-04T04:58:30.858Z,0.60
2022-12-04T05:01:03.844Z,0.70
2022-12-04T05:03:31.896Z,0.60
2022-12-04T05:05:58.922Z,0.70
2022-12-04T05:08:25.901Z,0.60
2022-12-04T05:10:52.795Z,0.60
2022-12-04T05:13:20.322Z,0.70
2022-12-04T05:15:57.839Z,0.60
2022-12-04T05:18:24.760Z,0.60
2022-12-04T05:20:51.584Z,0.70
2022-12-04T05:23:18.508Z,0.70
2022-12-04T05:25:45.156Z,0.70
2022-12-04T05:28:11.786Z,0.70
2022-12-04T05:30:38.913Z,0.70
2022-12-04T05:33:05.667Z,0.60
2022-12-04T05:35:32.396Z,0.70
2022-12-04T05:37:59.088Z,0.70
2022-12-04T05:40:25.702Z,0.60
2022-12-04T05:42:52.322Z,0.60
2022-12-04T05:45:19.148Z,0.70
2022-12-04T05:47:45.960Z,0.60
2022-12-04T05:50:13.482Z,0.60
2022-12-04T05:52:40.189Z,0.70
2022-12-04T05:55:07.204Z,0.70
2022-12-04T05:57:33.801Z,0.70
2022-12-04T06:00:00.412Z,0.70
2022-12-04T06:02:27.165Z,0.80
2022-12-04T06:04:53.916Z,0.70
2022-12-04T06:07:20.683Z,0.70
2022-12-04T06:09:47.294Z,0.70
2022-12-04T06:12:14.168Z,0.70
2022-12-04T06:14:40.827Z,0.70
2022-12-04T06:17:07.437Z,0.70
2022-12-04T06:19:34.187Z,0.70
2022-12-04T06:22:00.812Z,0.70
2022-12-04T06:24:27.457Z,0.70
2022-12-04T06:29:45.855Z,0.80
2022-12-04T06:32:16.484Z,0.80
2022-12-04T06:34:51.541Z,0.70
2022-12-04T06:37:18.739Z,0.80
2022-12-04T06:39:45.426Z,0.70
2022-12-04T06:42:12.037Z,0.80
2022-12-04T06:44:38.713Z,0.80
2022-12-04T06:47:05.759Z,0.80
2022-12-04T06:49:32.462Z,0.80
2022-12-04T06:51:59.184Z,0.80
2022-12-04T06:54:26.267Z,0.80
2022-12-04T06:56:52.889Z,0.80
2022-12-04T06:59:20.332Z,0.80
2022-12-04T07:01:46.928Z,0.80
2022-12-04T07:04:13.661Z,0.80
2022-12-04T07:06:40.398Z,0.80
2022-12-04T07:09:11.436Z,0.80
2022-12-04T07:11:39.608Z,0.80
2022-12-04T07:14:06.766Z,0.80
2022-12-04T07:16:38.667Z,0.90
2022-12-04T07:19:08.661Z,0.90
2022-12-04T07:21:35.298Z,0.80
2022-12-04T07:24:02.089Z,0.80
2022-12-04T07:26:29.971Z,0.80
2022-12-04T07:28:57.425Z,0.80
2022-12-04T07:31:26.163Z,0.90
2022-12-04T07:33:54.453Z,0.80
2022-12-04T07:36:23.494Z,0.90
2022-12-04T07:38:51.220Z,0.90
2022-12-04T07:41:18.669Z,0.90
2022-12-04T07:43:45.768Z,0.90
2022-12-04T07:46:22.139Z,0.90
2022-12-04T07:48:48.823Z,0.90
2022-12-04T07:51:18.324Z,0.90
2022-12-04T07:53:45.235Z,0.90
2022-12-04T07:56:12.861Z,0.90
2022-12-04T07:58:40.666Z,0.90
2022-12-04T08:01:19.108Z,0.90
2022-12-04T08:03:48.925Z,0.90
2022-12-04T08:06:18.054Z,1.00
2022-12-04T08:08:45.254Z,1.00
2022-12-04T08:11:15.809Z,1.00
2022-12-04T08:13:42.636Z,1.00
2022-12-04T08:16:11.369Z,1.00
2022-12-04T08:18:38.639Z,1.00
2022-12-04T08:21:11.843Z,1.00
2022-12-04T08:23:40.558Z,1.00
2022-12-04T08:26:08.675Z,1.00
2022-12-04T08:28:36.166Z,1.00
2022-12-04T08:31:11.905Z,1.00
2022-12-04T08:33:39.079Z,1.00
2022-12-04T08:36:08.290Z,1.10
2022-12-04T08:38:35.470Z,1.10
2022-12-04T08:41:04.442Z,1.10
2022-12-04T08:43:31.388Z,1.10
2022-12-04T08:46:00.283Z,1.10
2022-12-04T08:48:27.682Z,1.10
2022-12-04T08:50:54.895Z,1.20
2022-12-04T08:53:22.113Z,1.20
2022-12-04T08:55:48.803Z,1.20
2022-12-04T08:58:15.706Z,1.20
2022-12-04T09:00:43.307Z,1.20
2022-12-04T09:03:14.672Z,1.20
2022-12-04T09:05:41.648Z,1.20
2022-12-04T09:08:08.992Z,1.20
2022-12-04T09:10:36.573Z,1.20
2022-12-04T09:13:03.667Z,1.30
2022-12-04T09:15:30.773Z,1.30
2022-12-04T09:17:57.606Z,1.30
2022-12-04T09:20:24.934Z,1.30
2022-12-04T09:23:04.030Z,1.30
2022-12-04T09:25:34.675Z,1.40
2022-12-04T09:28:01.314Z,1.40
2022-12-04T09:30:28.011Z,1.40
2022-12-04T09:32:54.649Z,1.40
2022-12-04T09:35:21.260Z,1.30
2022-12-04T09:37:47.886Z,1.30
2022-12-04T09:40:37.481Z,1.30
2022-12-04T09:43:18.103Z,1.30
2022-12-04T09:45:50.017Z,1.30
2022-12-04T09:48:21.267Z,1.40
2022-12-04T09:50:50.080Z,1.30
2022-12-04T09:53:27.746Z,1.40
2022-12-04T09:56:10.444Z,1.40
2022-12-04T09:59:11.292Z,1.40
2022-12-04T10:01:49.118Z,1.40
2022-12-04T10:04:17.195Z,1.40
2022-12-04T10:06:52.067Z,1.50
2022-12-04T10:09:31.053Z,1.50
2022-12-04T10:12:22.880Z,1.50
2022-12-04T10:15:20.155Z,1.50
2022-12-04T10:18:18.625Z,1.60
2022-12-04T10:21:04.145Z,1.60
2022-12-04T10:23:52.936Z,1.50
2022-12-04T10:26:25.651Z,1.60
2022-12-04T10:29:04.099Z,1.60
2022-12-04T10:31:33.980Z,1.60
2022-12-04T10:34:18.115Z,1.60
2022-12-04T10:36:50.870Z,1.60
2022-12-04T10:39:32.071Z,1.70
2022-12-04T10:42:20.446Z,1.70
2022-12-04T10:44:47.344Z,1.70
2022-12-04T10:47:14.676Z,1.60
2022-12-04T10:49:41.792Z,1.70
2022-12-04T10:52:12.663Z,1.70
2022-12-04T10:54:54.064Z,1.70
2022-12-04T10:57:20.861Z,1.70
2022-12-04T10:59:53.414Z,1.70
2022-12-04T11:02:29.516Z,1.80
2022-12-04T11:04:57.063Z,1.80
2022-12-04T11:07:27.511Z,1.70
2022-12-04T11:10:18.960Z,1.80
2022-12-04T11:13:01.170Z,1.70
2022-12-04T11:15:28.915Z,1.80
2022-12-04T11:17:55.837Z,1.80
2022-12-04T11:20:26.346Z,1.80
2022-12-04T11:22:56.936Z,1.80
2022-12-04T11:25:26.730Z,1.80
2022-12-04T11:27:59.465Z,1.90
2022-12-04T11:30:37.547Z,1.80
2022-12-04T11:33:16.015Z,1.80
2022-12-04T11:35:42.716Z,1.90
2022-12-04T11:38:16.127Z,1.90
2022-12-04T11:40:57.085Z,1.90
2022-12-04T11:43:29.497Z,1.80
2022-12-04T11:46:05.031Z,1.80
2022-12-04T11:48:41.326Z,1.80
2022-12-04T11:51:32.781Z,1.90
2022-12-04T11:54:25.572Z,1.90
2022-12-04T11:57:23.691Z,1.90
2022-12-04T11:59:53.179Z,1.90
2022-12-04T12:02:50.510Z,1.90
2022-12-04T12:05:48.016Z,1.90
2022-12-04T12:08:43.265Z,1.90
2022-12-04T12:11:40.088Z,2.00
2022-12-04T12:14:34.146Z,2.00
2022-12-04T12:17:32.167Z,2.00
2022-12-04T12:20:21.782Z,2.00
2022-12-04T12:23:02.299Z,2.00
2022-12-04T12:25:40.210Z,2.00
2022-12-04T12:28:28.700Z,2.00
2022-12-04T12:31:23.878Z,1.90
2022-12-04T12:34:19.818Z,1.90
2022-12-04T12:36:53.292Z,1.90
2022-12-04T12:39:27.824Z,1.90
2022-12-04T12:41:58.989Z,1.90
2022-12-04T12:45:01.350Z,1.90
2022-12-04T12:47:38.376Z,1.90
2022-12-04T12:50:15.573Z,1.90
2022-12-04T12:52:57.251Z,2.00
2022-12-04T12:55:47.540Z,1.90
2022-12-04T12:58:29.292Z,1.90
2022-12-04T13:01:13.173Z,2.00
2022-12-04T13:04:10.772Z,2.00
2022-12-04T13:06:40.440Z,2.00
2022-12-04T13:09:35.109Z,2.00
2022-12-04T13:12:16.610Z,1.90
2022-12-04T13:14:48.682Z,1.90
2022-12-04T13:17:35.836Z,1.90
2022-12-04T13:20:10.121Z,2.00
2022-12-04T13:23:00.275Z,2.00
2022-12-04T13:25:46.709Z,2.00
2022-12-04T13:28:36.233Z,2.00
2022-12-04T13:31:30.209Z,2.00
2022-12-04T13:34:26.614Z,2.00
2022-12-04T13:37:02.261Z,2.00
2022-12-04T13:40:00.516Z,2.00
2022-12-04T13:42:29.023Z,2.00
2022-12-04T13:45:06.362Z,2.00
2022-12-04T13:47:34.945Z,2.10
2022-12-04T13:50:18.728Z,2.00
2022-12-04T13:52:47.376Z,2.00
2022-12-04T13:55:30.190Z,2.00
2022-12-04T13:58:10.653Z,2.10
2022-12-04T14:00:42.392Z,2.10
2022-12-04T14:03:25.486Z,2.00
2022-12-04T14:05:52.777Z,2.10
2022-12-04T14:08:19.467Z,2.10
2022-12-04T14:11:13.373Z,2.10
2022-12-04T14:13:47.620Z,2.20
2022-12-04T14:16:19.789Z,2.20
2022-12-04T14:18:49.251Z,2.20
2022-12-04T14:21:16.004Z,2.20
2022-12-04T14:23:46.492Z,2.20
2022-12-04T14:27:10.112Z,2.20
2022-12-04T14:29:46.277Z,2.20
2022-12-04T14:32:22.624Z,2.30
2022-12-04T14:34:50.086Z,2.20
2022-12-04T14:37:29.072Z,2.20
2022-12-04T14:39:57.729Z,2.30
2022-12-04T14:42:38.320Z,2.30
2022-12-04T14:45:21.622Z,2.30
2022-12-04T14:48:04.214Z,2.30
2022-12-04T14:50:48.356Z,2.20
2022-12-04T14:53:39.718Z,2.20
2022-12-04T14:56:35.632Z,2.30
2022-12-04T14:59:15.112Z,2.30
2022-12-04T15:01:41.810Z,2.30
2022-12-04T15:04:25.445Z,2.30
2022-12-04T15:06:59.724Z,2.30
2022-12-04T15:09:46.651Z,2.30
2022-12-04T15:12:36.439Z,2.30
2022-12-04T15:15:19.594Z,2.30
2022-12-04T15:18:11.108Z,2.30
2022-12-04T15:20:49.064Z,2.30
2022-12-04T15:23:18.836Z,2.30
2022-12-04T15:25:50.153Z,2.40
2022-12-04T15:28:42.461Z,2.40
2022-12-04T15:31:25.460Z,2.40
2022-12-04T15:33:56.448Z,2.40
2022-12-04T15:36:46.982Z,2.40
2022-12-04T15:39:28.369Z,2.40
2022-12-04T15:42:06.361Z,2.40
2022-12-04T15:44:35.508Z,2.40
2022-12-04T15:47:16.096Z,2.30
2022-12-04T15:49:42.841Z,2.30
2022-12-04T15:52:19.553Z,2.30
2022-12-04T15:54:59.914Z,2.40
2022-12-04T15:57:31.232Z,2.40
2022-12-04T16:00:01.257Z,2.30
2022-12-04T16:02:42.844Z,2.40
2022-12-04T16:05:21.500Z,2.40
2022-12-04T16:08:30.952Z,2.40
2022-12-04T16:11:17.954Z,2.40
2022-12-04T16:13:44.674Z,2.40
2022-12-04T16:16:23.007Z,2.40
2022-12-04T16:18:49.766Z,2.50
2022-12-04T16:21:19.290Z,2.50
2022-12-04T16:23:45.941Z,2.50
2022-12-04T16:26:18.095Z,2.50
2022-12-04T16:28:45.198Z,2.50
2022-12-04T16:31:13.033Z,2.50
2022-12-04T16:33:40.385Z,2.50
2022-12-04T16:36:09.701Z,2.50
2022-12-04T16:38:36.597Z,2.50
2022-12-04T16:41:05.329Z,2.50
2022-12-04T16:43:32.236Z,2.50
2022-12-04T16:46:01.375Z,2.50
2022-12-04T16:48:29.718Z,2.50
2022-12-04T16:50:56.375Z,2.50
2022-12-04T16:53:23.341Z,2.50
2022-12-04T16:55:52.562Z,2.50
2022-12-04T16:58:20.384Z,2.50
2022-12-04T17:00:53.806Z,2.60
2022-12-04T17:03:34.233Z,2.60
2022-12-04T17:06:01.831Z,2.60
2022-12-04T17:08:29.674Z,2.60
2022-12-04T17:10:56.348Z,2.60
2022-12-04T17:13:23.270Z,2.60
2022-12-04T17:15:49.985Z,2.60
2022-12-04T17:18:21.021Z,2.60
2022-12-04T17:20:48.083Z,2.60
2022-12-04T17:23:15.096Z,2.60
2022-12-04T17:25:42.007Z,2.70
2022-12-04T17:28:08.998Z,2.70
2022-12-04T17:30:36.347Z,2.70
2022-12-04T17:33:04.024Z,2.70
2022-12-04T17:35:30.817Z,2.70
2022-12-04T17:38:03.852Z,2.70
2022-12-04T17:40:32.500Z,2.70
2022-12-04T17:42:59.300Z,2.80
2022-12-04T17:45:26.330Z,2.80
2022-12-04T17:47:53.112Z,2.80
2022-12-04T17:50:19.897Z,2.80
2022-12-04T17:52:46.617Z,2.80
2022-12-04T17:55:13.313Z,2.80
2022-12-04T17:57:40.061Z,2.80
2022-12-04T18:00:08.392Z,2.80
2022-12-04T18:02:36.011Z,2.80
2022-12-04T18:05:02.953Z,2.80
2022-12-04T18:07:30.874Z,2.80
2022-12-04T18:09:57.828Z,2.80
2022-12-04T18:12:24.680Z,2.80
2022-12-04T18:14:51.505Z,2.80
2022-12-04T18:17:20.670Z,2.80
2022-12-04T18:19:47.955Z,2.80
2022-12-04T18:22:14.693Z,2.80
2022-12-04T18:24:41.826Z,2.80
2022-12-04T18:27:08.501Z,2.80
2022-12-04T18:29:35.692Z,2.80
2022-12-04T18:32:02.599Z,2.80
2022-12-04T18:34:29.345Z,2.90
2022-12-04T18:36:56.039Z,2.80
2022-12-04T18:39:24.195Z,2.80
2022-12-04T18:41:53.777Z,2.80
2022-12-04T18:44:20.531Z,2.80
2022-12-04T18:46:47.220Z,2.80
2022-12-04T18:49:14.059Z,2.80
2022-12-04T18:51:49.624Z,2.80
2022-12-04T18:54:19.877Z,2.90
2022-12-04T18:56:46.946Z,2.90
2022-12-04T18:59:19.364Z,2.90
2022-12-04T19:01:46.373Z,2.90
2022-12-04T19:04:14.472Z,2.90
2022-12-04T19:06:44.507Z,2.90
2022-12-04T19:09:13.701Z,3.00
2022-12-04T19:11:41.695Z,2.90
2022-12-04T19:14:17.530Z,3.00
2022-12-04T19:16:48.094Z,3.00
2022-12-04T19:19:15.415Z,3.00
2022-12-04T19:21:42.091Z,3.00
2022-12-04T19:24:10.451Z,3.00
2022-12-04T19:26:37.322Z,3.00
2022-12-04T19:29:05.466Z,3.10
2022-12-04T19:31:34.211Z,3.10
2022-12-04T19:34:01.211Z,3.10
2022-12-04T19:36:29.666Z,3.10
2022-12-04T19:39:00.322Z,3.00
2022-12-04T19:41:33.715Z,3.00
2022-12-04T19:44:01.221Z,3.10
2022-12-04T19:46:30.651Z,3.10
2022-12-04T19:49:01.833Z,3.10
2022-12-04T19:51:32.349Z,3.10
2022-12-04T19:54:01.054Z,3.10
2022-12-04T19:56:29.750Z,3.10
2022-12-04T19:59:03.028Z,3.10
2022-12-04T20:01:32.225Z,3.10
2022-12-04T20:04:02.639Z,3.10
2022-12-04T20:06:30.068Z,3.10
2022-12-04T20:08:59.412Z,3.00
2022-12-04T20:11:28.472Z,3.00
2022-12-04T20:13:56.980Z,3.00
2022-12-04T20:16:28.052Z,3.00
2022-12-04T20:18:55.604Z,3.00
2022-12-04T20:21:26.279Z,3.00
2022-12-04T20:23:54.222Z,3.00
2022-12-04T20:26:23.747Z,3.00
2022-12-04T20:28:51.057Z,3.00
2022-12-04T20:31:23.483Z,3.00
2022-12-04T20:33:52.221Z,3.00
2022-12-04T20:36:21.046Z,3.00
2022-12-04T20:38:48.514Z,3.00
2022-12-04T20:41:16.191Z,3.00
2022-12-04T20:43:43.677Z,3.00
2022-12-04T20:46:22.067Z,2.90
2022-12-04T20:48:50.150Z,2.90
2022-12-04T20:51:18.653Z,2.90
2022-12-04T20:53:47.008Z,3.00
2022-12-04T20:56:14.333Z,3.00
2022-12-04T20:58:41.486Z,3.00
2022-12-04T21:01:10.068Z,3.00
2022-12-04T21:03:36.941Z,3.00
2022-12-04T21:06:03.751Z,3.00
2022-12-04T21:08:49.251Z,3.00
2022-12-04T21:11:15.993Z,3.00
2022-12-04T21:14:01.269Z,3.00
2022-12-04T21:16:28.049Z,2.90
2022-12-04T21:18:54.700Z,2.90
2022-12-04T21:21:21.556Z,3.00
2022-12-04T21:23:48.204Z,3.00
2022-12-04T21:26:14.839Z,3.00
2022-12-04T21:28:42.228Z,3.00
2022-12-04T21:31:09.673Z,2.90
2022-12-04T21:33:36.462Z,2.90
2022-12-04T21:36:08.623Z,2.90
2022-12-04T21:38:36.973Z,2.90
2022-12-04T21:41:05.864Z,3.00
2022-12-04T21:43:33.387Z,3.00
2022-12-04T21:46:09.643Z,3.00
2022-12-04T21:48:36.409Z,2.90
2022-12-04T21:51:21.275Z,2.90
2022-12-04T21:53:54.809Z,2.90
2022-12-04T21:56:24.996Z,3.00
2022-12-04T21:58:51.824Z,3.00
2022-12-04T22:01:21.662Z,3.00
2022-12-04T22:03:49.152Z,3.00
2022-12-04T22:06:15.879Z,3.00
2022-12-04T22:08:42.504Z,3.00
2022-12-04T22:11:10.932Z,3.00
2022-12-04T22:13:38.568Z,3.00
2022-12-04T22:16:08.155Z,3.00
2022-12-04T22:18:35.224Z,3.00
2022-12-04T22:21:05.969Z,3.00
2022-12-04T22:23:32.932Z,3.00
2022-12-04T22:26:15.935Z,3.00
2022-12-04T22:28:43.402Z,3.00
2022-12-04T22:31:13.572Z,3.00
2022-12-04T22:33:41.786Z,3.00
2022-12-04T22:36:10.795Z,3.00
2022-12-04T22:38:52.611Z,3.00
2022-12-04T22:41:26.051Z,3.00
2022-12-04T22:43:52.795Z,3.00
2022-12-04T22:46:19.588Z,3.00
2022-12-04T22:48:46.564Z,3.00
2022-12-04T22:51:16.924Z,2.90
2022-12-04T22:53:52.752Z,2.90
2022-12-04T22:56:28.093Z,2.90
2022-12-04T22:58:55.160Z,2.90
2022-12-04T23:01:27.868Z,2.90
2022-12-04T23:03:55.012Z,2.90
2022-12-04T23:06:28.086Z,2.90
2022-12-04T23:08:56.839Z,2.90
2022-12-04T23:11:25.047Z,3.00
2022-12-04T23:13:53.666Z,3.00
2022-12-04T23:16:21.906Z,3.00
2022-12-04T23:18:49.471Z,3.00
2022-12-04T23:21:16.911Z,3.00
2022-12-04T23:23:45.321Z,2.90
2022-12-04T23:26:18.428Z,2.90
2022-12-04T23:28:45.726Z,2.90
2022-12-04T23:31:13.055Z,2.90
2022-12-04T23:33:40.594Z,2.90
2022-12-04T23:36:09.645Z,3.00
2022-12-04T23:38:38.437Z,3.00
2022-12-04T23:41:26.564Z,3.00
2022-12-04T23:43:54.541Z,3.00
2022-12-04T23:46:29.038Z,3.00
2022-12-04T23:48:55.886Z,3.00
2022-12-04T23:51:23.146Z,3.00
2022-12-04T23:53:51.327Z,3.00
2022-12-04T23:56:23.765Z,3.00
2022-12-04T23:58:52.148Z,3.10
